createdAt,value
2023-11-15T00:00:29.131Z,10.78
2023-11-15T00:02:55.842Z,10.67
2023-11-15T00:05:22.777Z,10.64
2023-11-15T00:07:50.400Z,10.57
2023-11-15T00:10:17.005Z,10.53
2023-11-15T00:12:46.265Z,10.50
2023-11-15T00:15:12.852Z,10.50
2023-11-15T00:17:39.476Z,10.48
2023-11-15T00:20:07.837Z,10.39
2023-11-15T00:22:34.400Z,10.38
2023-11-15T00:25:02.131Z,10.39
2023-11-15T00:27:28.724Z,10.37
2023-11-15T00:29:55.372Z,10.39
2023-11-15T00:32:23.082Z,10.38
2023-11-15T00:34:49.742Z,10.33
2023-11-15T00:37:16.762Z,10.31
2023-11-15T00:39:44.390Z,10.27
2023-11-15T00:42:11.839Z,10.28
2023-11-15T00:44:38.860Z,10.26
2023-11-15T00:47:06.811Z,10.26
2023-11-15T00:49:34.151Z,10.30
2023-11-15T00:52:00.918Z,10.23
2023-11-15T00:54:28.567Z,10.25
2023-11-15T00:56:55.211Z,10.27
2023-11-15T00:59:23.131Z,10.17
2023-11-15T01:01:49.953Z,10.15
2023-11-15T01:04:16.626Z,10.13
2023-11-15T01:06:44.303Z,10.11
2023-11-15T01:09:11.912Z,10.02
2023-11-15T01:11:38.641Z,10.06
2023-11-15T01:14:06.381Z,10.00
2023-11-15T01:16:32.993Z,10.02
2023-11-15T01:19:00.858Z,10.07
2023-11-15T01:21:27.444Z,10.03
2023-11-15T01:23:54.062Z,9.95
2023-11-15T01:26:21.820Z,9.97
2023-11-15T01:28:48.524Z,9.97
2023-11-15T01:31:15.104Z,10.05
2023-11-15T01:33:45.063Z,9.94
2023-11-15T01:36:11.670Z,10.01
2023-11-15T01:38:39.339Z,10.03
2023-11-15T01:41:06.134Z,10.04
2023-11-15T01:43:32.718Z,10.01
2023-11-15T01:46:00.374Z,10.00
2023-11-15T01:48:27.041Z,9.94
2023-11-15T01:50:54.840Z,9.86
2023-11-15T01:53:21.528Z,9.87
2023-11-15T01:55:49.279Z,9.90
2023-11-15T01:58:16.090Z,9.91
2023-11-15T02:00:42.943Z,9.84
2023-11-15T02:03:10.781Z,9.72
2023-11-15T02:05:37.475Z,9.74
2023-11-15T02:08:04.926Z,9.74
2023-11-15T02:10:32.889Z,9.73
2023-11-15T02:12:59.463Z,9.74
2023-11-15T02:15:26.042Z,9.66
2023-11-15T02:17:53.717Z,9.67
2023-11-15T02:20:20.422Z,9.71
2023-11-15T02:22:51.014Z,9.74
2023-11-15T02:25:18.751Z,9.68
2023-11-15T02:27:46.776Z,9.60
2023-11-15T02:30:13.418Z,9.63
2023-11-15T02:32:43.174Z,9.63
2023-11-15T02:35:10.998Z,9.63
2023-11-15T02:37:37.594Z,9.65
2023-11-15T02:40:05.675Z,9.66
2023-11-15T02:42:35.062Z,9.65
2023-11-15T02:45:01.826Z,9.65
2023-11-15T02:47:29.929Z,9.66
2023-11-15T02:49:56.570Z,9.69
2023-11-15T02:52:23.143Z,9.66
2023-11-15T02:54:51.011Z,9.67
2023-11-15T02:57:17.553Z,9.71
2023-11-15T02:59:45.193Z,9.73
2023-11-15T03:02:11.776Z,9.80
2023-11-15T03:04:38.904Z,9.85
2023-11-15T03:07:06.550Z,9.89
2023-11-15T03:09:33.131Z,9.86
2023-11-15T03:11:59.741Z,9.87
2023-11-15T03:14:27.720Z,9.84
2023-11-15T03:16:54.536Z,9.86
2023-11-15T03:19:21.206Z,9.82
2023-11-15T03:21:48.870Z,9.84
2023-11-15T03:24:15.483Z,9.82
2023-11-15T03:26:43.151Z,9.84
2023-11-15T03:29:09.735Z,9.83
2023-11-15T03:31:36.320Z,9.85
2023-11-15T03:34:03.999Z,9.83
2023-11-15T03:36:30.571Z,9.84
2023-11-15T03:38:59.316Z,9.84
2023-11-15T03:41:25.942Z,9.85
2023-11-15T03:43:52.493Z,9.84
2023-11-15T03:46:20.241Z,9.79
2023-11-15T03:48:47.906Z,9.86
2023-11-15T03:51:14.579Z,9.88
2023-11-15T03:53:41.190Z,9.88
2023-11-15T03:56:09.526Z,9.83
2023-11-15T03:58:36.069Z,9.86
2023-11-15T04:01:03.142Z,9.82
2023-11-15T04:03:30.853Z,9.84
2023-11-15T04:05:57.747Z,9.79
2023-11-15T04:08:24.340Z,9.81
2023-11-15T04:10:52.007Z,9.73
2023-11-15T04:13:18.565Z,9.79
2023-11-15T04:15:46.178Z,9.75
2023-11-15T04:18:12.811Z,9.74
2023-11-15T04:20:40.457Z,9.71
2023-11-15T04:23:08.094Z,9.74
2023-11-15T04:25:34.645Z,9.69
2023-11-15T04:28:02.291Z,9.68
2023-11-15T04:30:29.982Z,9.67
2023-11-15T04:32:56.637Z,9.58
2023-11-15T04:35:24.340Z,9.57
2023-11-15T04:37:51.075Z,9.57
2023-11-15T04:40:18.702Z,9.53
2023-11-15T04:42:46.375Z,9.49
2023-11-15T04:45:13.106Z,9.47
2023-11-15T04:47:40.217Z,9.43
2023-11-15T04:50:08.449Z,9.46
2023-11-15T04:52:36.042Z,9.43
2023-11-15T04:55:02.625Z,9.40
2023-11-15T04:57:31.290Z,9.46
2023-11-15T04:59:57.882Z,9.47
2023-11-15T05:02:24.653Z,9.37
2023-11-15T05:04:53.311Z,9.40
2023-11-15T05:07:21.188Z,9.41
2023-11-15T05:09:47.728Z,9.40
2023-11-15T05:12:15.388Z,9.37
2023-11-15T05:14:41.990Z,9.38
2023-11-15T05:17:09.702Z,9.37
2023-11-15T05:19:36.328Z,9.40
2023-11-15T05:22:02.925Z,9.38
2023-11-15T05:24:30.587Z,9.36
2023-11-15T05:26:57.176Z,9.32
2023-11-15T05:29:24.833Z,9.31
2023-11-15T05:31:51.778Z,9.30
2023-11-15T05:34:18.329Z,9.29
2023-11-15T05:36:45.954Z,9.28
2023-11-15T05:39:12.508Z,9.15
2023-11-15T05:41:40.194Z,9.19
2023-11-15T05:44:07.936Z,9.17
2023-11-15T05:46:34.625Z,9.18
2023-11-15T05:49:02.364Z,9.22
2023-11-15T05:51:29.020Z,9.26
2023-11-15T05:53:55.625Z,9.18
2023-11-15T05:56:23.381Z,9.22
2023-11-15T05:58:49.970Z,9.17
2023-11-15T06:01:17.632Z,9.19
2023-11-15T06:03:44.366Z,9.19
2023-11-15T06:06:11.012Z,9.21
2023-11-15T06:08:38.670Z,9.21
2023-11-15T06:11:05.554Z,9.14
2023-11-15T06:13:32.213Z,9.16
2023-11-15T06:15:59.864Z,9.19
2023-11-15T06:18:26.538Z,9.18
2023-11-15T06:20:53.204Z,9.14
2023-11-15T06:23:20.871Z,9.16
2023-11-15T06:25:47.433Z,9.12
2023-11-15T06:28:15.068Z,9.09
2023-11-15T06:30:42.925Z,9.08
2023-11-15T06:33:10.826Z,9.11
2023-11-15T06:35:37.579Z,9.07
2023-11-15T06:38:04.289Z,9.09
2023-11-15T06:40:31.933Z,9.07
2023-11-15T06:42:58.530Z,9.06
2023-11-15T06:45:26.179Z,9.02
2023-11-15T06:47:52.788Z,9.06
2023-11-15T06:50:20.411Z,9.06
2023-11-15T06:52:47.073Z,9.09
2023-11-15T06:55:13.641Z,9.08
2023-11-15T06:57:42.084Z,9.05
2023-11-15T07:00:10.808Z,9.05
2023-11-15T07:02:38.743Z,9.03
2023-11-15T07:05:06.269Z,9.05
2023-11-15T07:07:34.236Z,9.06
2023-11-15T07:10:00.828Z,9.02
2023-11-15T07:12:27.542Z,9.06
2023-11-15T07:14:55.218Z,9.04
2023-11-15T07:17:21.829Z,9.04
2023-11-15T07:19:48.396Z,9.07
2023-11-15T07:22:16.908Z,9.07
2023-11-15T07:24:44.172Z,9.00
2023-11-15T07:27:11.810Z,9.07
2023-11-15T07:29:38.488Z,9.05
2023-11-15T07:32:06.512Z,9.03
2023-11-15T07:34:33.440Z,8.97
2023-11-15T07:37:00.047Z,8.95
2023-11-15T07:39:28.186Z,8.96
2023-11-15T07:41:55.326Z,8.95
2023-11-15T07:44:22.956Z,8.96
2023-11-15T07:46:50.563Z,8.98
2023-11-15T07:49:18.000Z,9.04
2023-11-15T07:51:46.119Z,9.02
2023-11-15T07:54:12.860Z,8.96
2023-11-15T07:56:40.490Z,8.96
2023-11-15T07:59:07.363Z,8.86
2023-11-15T08:01:33.996Z,8.89
2023-11-15T08:04:01.843Z,8.86
2023-11-15T08:06:29.111Z,8.85
2023-11-15T08:08:55.693Z,8.87
2023-11-15T08:11:23.312Z,8.98
2023-11-15T08:13:49.851Z,9.02
2023-11-15T08:16:16.417Z,8.98
2023-11-15T08:18:44.105Z,8.98
2023-11-15T08:21:11.817Z,8.91
2023-11-15T08:23:38.449Z,8.96
2023-11-15T08:26:06.676Z,8.98
2023-11-15T08:28:33.235Z,8.95
2023-11-15T08:30:59.974Z,8.94
2023-11-15T08:33:28.848Z,8.97
2023-11-15T08:35:55.437Z,9.05
2023-11-15T08:38:22.054Z,9.07
2023-11-15T08:40:49.673Z,9.06
2023-11-15T08:43:19.050Z,9.08
2023-11-15T08:45:46.847Z,9.11
2023-11-15T08:48:13.710Z,9.10
2023-11-15T08:50:44.440Z,9.06
2023-11-15T08:53:14.381Z,9.08
2023-11-15T08:55:42.023Z,9.13
2023-11-15T08:58:08.705Z,9.11
2023-11-15T09:00:35.291Z,9.16
2023-11-15T09:03:03.053Z,9.22
2023-11-15T09:05:32.703Z,9.25
2023-11-15T09:07:59.409Z,9.23
2023-11-15T09:10:25.951Z,9.27
2023-11-15T09:12:53.744Z,9.26
2023-11-15T09:15:21.688Z,9.30
2023-11-15T09:17:48.429Z,9.31
2023-11-15T09:20:23.978Z,9.42
2023-11-15T09:22:51.659Z,9.45
2023-11-15T09:25:18.830Z,9.48
2023-11-15T09:27:45.362Z,9.43
2023-11-15T09:30:13.823Z,9.50
2023-11-15T09:32:43.839Z,9.67
2023-11-15T09:35:10.589Z,9.76
2023-11-15T09:37:40.984Z,9.88
2023-11-15T09:40:09.399Z,9.98
2023-11-15T09:42:39.561Z,10.12
2023-11-15T09:45:10.027Z,10.17
2023-11-15T09:47:38.503Z,10.23
2023-11-15T09:50:07.314Z,10.26
2023-11-15T09:52:34.941Z,10.34
2023-11-15T09:55:02.687Z,10.44
2023-11-15T09:57:29.270Z,10.48
2023-11-15T10:00:05.398Z,10.45
2023-11-15T10:02:40.816Z,10.42
2023-11-15T10:05:27.885Z,10.52
2023-11-15T10:08:14.283Z,10.56
2023-11-15T10:10:46.133Z,10.59
2023-11-15T10:13:18.369Z,10.60
2023-11-15T10:15:46.798Z,10.65
2023-11-15T10:18:15.580Z,10.73
2023-11-15T10:20:44.365Z,10.69
2023-11-15T10:23:11.710Z,10.66
2023-11-15T10:25:52.625Z,10.69
2023-11-15T10:28:20.324Z,10.71
2023-11-15T10:30:47.003Z,10.74
2023-11-15T10:33:14.808Z,10.79
2023-11-15T10:35:41.726Z,10.80
2023-11-15T10:38:09.394Z,10.79
2023-11-15T10:40:37.450Z,10.78
2023-11-15T10:43:06.619Z,10.85
2023-11-15T10:45:34.393Z,10.84
2023-11-15T10:48:07.542Z,10.69
2023-11-15T10:50:38.473Z,10.67
2023-11-15T10:53:06.156Z,10.65
2023-11-15T10:55:33.898Z,10.63
2023-11-15T10:58:02.927Z,10.65
2023-11-15T11:00:30.434Z,10.65
2023-11-15T11:03:00.371Z,10.58
2023-11-15T11:05:44.237Z,10.61
2023-11-15T11:08:38.748Z,10.63
2023-11-15T11:11:11.419Z,10.63
2023-11-15T11:13:39.548Z,10.64
2023-11-15T11:16:34.542Z,10.69
2023-11-15T11:19:20.192Z,10.73
2023-11-15T11:21:59.027Z,10.75
2023-11-15T11:24:26.650Z,10.79
2023-11-15T11:26:54.368Z,10.81
2023-11-15T11:29:20.995Z,10.85
2023-11-15T11:32:23.459Z,10.82
2023-11-15T11:35:02.341Z,10.85
2023-11-15T11:37:43.876Z,10.79
2023-11-15T11:40:10.438Z,10.85
2023-11-15T11:42:38.002Z,10.87
2023-11-15T11:45:06.193Z,10.89
2023-11-15T11:47:42.123Z,10.96
2023-11-15T11:50:10.405Z,11.01
2023-11-15T11:52:37.168Z,11.01
2023-11-15T11:55:04.991Z,11.04
2023-11-15T11:57:32.759Z,11.09
2023-11-15T12:00:06.681Z,11.14
2023-11-15T12:02:38.104Z,11.17
2023-11-15T12:05:05.637Z,11.17
2023-11-15T12:07:33.541Z,11.21
2023-11-15T12:10:04.576Z,11.17
2023-11-15T12:12:32.207Z,11.26
2023-11-15T12:14:59.767Z,11.25
2023-11-15T12:17:40.490Z,11.24
2023-11-15T12:20:08.632Z,11.28
2023-11-15T12:22:37.247Z,11.33
2023-11-15T12:25:05.696Z,11.35
2023-11-15T12:27:33.357Z,11.39
2023-11-15T12:30:01.117Z,11.39
2023-11-15T12:32:27.848Z,11.39
2023-11-15T12:34:55.458Z,11.38
2023-11-15T12:37:23.224Z,11.35
2023-11-15T12:39:49.828Z,11.39
2023-11-15T12:42:27.889Z,11.45
2023-11-15T12:44:54.566Z,11.48
2023-11-15T12:47:24.771Z,11.50
2023-11-15T12:49:52.457Z,11.53
2023-11-15T12:52:44.689Z,11.55
2023-11-15T12:55:15.512Z,11.53
2023-11-15T12:57:53.219Z,11.52
2023-11-15T13:00:29.456Z,11.55
2023-11-15T13:02:57.566Z,11.56
2023-11-15T13:05:29.181Z,11.56
2023-11-15T13:07:55.868Z,11.57
2023-11-15T13:10:23.786Z,11.61
2023-11-15T13:12:50.397Z,11.61
2023-11-15T13:15:18.088Z,11.58
2023-11-15T13:17:47.713Z,11.54
2023-11-15T13:20:14.359Z,11.59
2023-11-15T13:22:41.990Z,11.52
2023-11-15T13:25:08.785Z,11.58
2023-11-15T13:27:36.616Z,11.62
2023-11-15T13:30:03.508Z,11.61
2023-11-15T13:32:30.185Z,11.64
2023-11-15T13:34:57.875Z,11.67
2023-11-15T13:37:24.461Z,11.69
2023-11-15T13:39:52.078Z,11.74
2023-11-15T13:42:18.809Z,11.77
2023-11-15T13:44:45.412Z,11.78
2023-11-15T13:47:13.119Z,11.77
2023-11-15T13:49:39.700Z,11.87
2023-11-15T13:52:06.328Z,11.96
2023-11-15T13:54:33.995Z,11.98
2023-11-15T13:57:00.646Z,11.97
2023-11-15T13:59:27.260Z,12.02
2023-11-15T14:01:55.896Z,12.08
2023-11-15T14:04:23.571Z,12.14
2023-11-15T14:06:50.167Z,12.13
2023-11-15T14:09:16.726Z,12.15
2023-11-15T14:11:44.403Z,12.12
2023-11-15T14:14:11.044Z,12.11
2023-11-15T14:16:37.878Z,12.10
2023-11-15T14:19:05.580Z,12.14
2023-11-15T14:21:33.202Z,12.16
2023-11-15T14:23:59.862Z,12.18
2023-11-15T14:26:26.426Z,12.18
2023-11-15T14:28:54.079Z,12.14
2023-11-15T14:31:20.705Z,12.17
2023-11-15T14:33:47.439Z,12.15
2023-11-15T14:36:17.652Z,12.12
2023-11-15T14:38:46.085Z,12.13
2023-11-15T14:41:14.066Z,12.09
2023-11-15T14:43:42.273Z,12.05
2023-11-15T14:46:08.907Z,12.09
2023-11-15T14:48:35.581Z,12.06
2023-11-15T14:51:04.313Z,12.03
2023-11-15T14:53:31.493Z,12.08
2023-11-15T14:55:58.396Z,12.05
2023-11-15T14:58:26.045Z,12.02
2023-11-15T15:00:52.693Z,12.00
2023-11-15T15:03:19.388Z,11.98
2023-11-15T15:05:47.350Z,11.94
2023-11-15T15:08:13.907Z,11.99
2023-11-15T15:10:41.651Z,11.93
2023-11-15T15:13:08.263Z,11.92
2023-11-15T15:15:39.386Z,11.87
2023-11-15T15:18:13.255Z,11.84
2023-11-15T15:20:43.656Z,11.82
2023-11-15T15:23:11.381Z,11.71
2023-11-15T15:25:37.931Z,11.73
2023-11-15T15:28:05.359Z,11.75
2023-11-15T15:30:33.036Z,11.70
2023-11-15T15:33:01.277Z,11.75
2023-11-15T15:35:32.471Z,11.74
2023-11-15T15:37:59.868Z,11.76
2023-11-15T15:40:26.493Z,11.77
2023-11-15T15:42:54.777Z,11.75
2023-11-15T15:45:21.514Z,11.73
2023-11-15T15:47:50.148Z,11.76
2023-11-15T15:50:16.793Z,11.65
2023-11-15T15:52:44.053Z,11.73
2023-11-15T15:55:12.355Z,11.71
2023-11-15T15:57:39.422Z,11.70
2023-11-15T16:00:08.037Z,11.68
2023-11-15T16:02:36.444Z,11.65
2023-11-15T16:05:06.752Z,11.66
2023-11-15T16:07:33.610Z,11.62
2023-11-15T16:10:01.698Z,11.63
2023-11-15T16:12:28.981Z,11.64
2023-11-15T16:14:55.686Z,11.66
2023-11-15T16:17:23.869Z,11.64
2023-11-15T16:19:50.539Z,11.62
2023-11-15T16:22:18.151Z,11.57
2023-11-15T16:24:44.731Z,11.53
2023-11-15T16:27:13.701Z,11.54
2023-11-15T16:29:43.303Z,11.49
2023-11-15T16:32:10.925Z,11.45
2023-11-15T16:34:37.497Z,11.49
2023-11-15T16:37:05.353Z,11.44
2023-11-15T16:39:31.930Z,11.47
2023-11-15T16:41:58.539Z,11.38
2023-11-15T16:44:26.188Z,11.36
2023-11-15T16:46:52.755Z,11.31
2023-11-15T16:49:19.306Z,11.36
2023-11-15T16:51:47.072Z,11.27
2023-11-15T16:54:13.730Z,11.19
2023-11-15T16:56:40.288Z,11.21
2023-11-15T16:59:07.886Z,11.19
2023-11-15T17:01:34.436Z,11.16
2023-11-15T17:04:01.373Z,11.15
2023-11-15T17:06:29.119Z,11.09
2023-11-15T17:08:55.694Z,11.10
2023-11-15T17:11:22.272Z,11.10
2023-11-15T17:13:49.955Z,11.11
2023-11-15T17:16:16.646Z,11.09
2023-11-15T17:18:44.572Z,11.09
2023-11-15T17:21:11.191Z,11.11
2023-11-15T17:23:38.508Z,11.12
2023-11-15T17:26:06.536Z,11.13
2023-11-15T17:28:33.092Z,11.13
2023-11-15T17:30:59.658Z,11.13
2023-11-15T17:33:27.353Z,11.13
2023-11-15T17:35:54.000Z,11.11
2023-11-15T17:38:20.609Z,11.09
2023-11-15T17:40:48.207Z,11.06
2023-11-15T17:43:14.780Z,11.03
2023-11-15T17:45:41.470Z,11.01
2023-11-15T17:48:09.271Z,10.95
2023-11-15T17:50:35.926Z,10.90
2023-11-15T17:53:03.566Z,10.91
2023-11-15T17:55:30.665Z,10.88
2023-11-15T17:57:57.286Z,10.90
2023-11-15T18:00:25.166Z,10.86
2023-11-15T18:02:51.885Z,10.89
2023-11-15T18:05:19.645Z,10.88
2023-11-15T18:07:46.719Z,10.89
2023-11-15T18:10:14.622Z,10.83
2023-11-15T18:12:43.870Z,10.86
2023-11-15T18:15:11.602Z,10.87
2023-11-15T18:17:39.279Z,10.83
2023-11-15T18:20:06.648Z,10.83
2023-11-15T18:22:33.208Z,10.82
2023-11-15T18:25:00.849Z,10.80
2023-11-15T18:27:27.711Z,10.73
2023-11-15T18:29:54.302Z,10.72
2023-11-15T18:32:22.416Z,10.69
2023-11-15T18:34:50.078Z,10.68
2023-11-15T18:37:16.622Z,10.64
2023-11-15T18:39:43.207Z,10.67
2023-11-15T18:42:14.113Z,10.62
2023-11-15T18:44:41.791Z,10.64
2023-11-15T18:47:11.621Z,10.62
2023-11-15T18:49:39.768Z,10.58
2023-11-15T18:52:06.867Z,10.41
2023-11-15T18:54:34.570Z,10.31
2023-11-15T18:57:01.250Z,10.21
2023-11-15T18:59:28.895Z,10.23
2023-11-15T19:01:56.524Z,10.22
2023-11-15T19:04:23.179Z,10.25
2023-11-15T19:06:50.911Z,10.25
2023-11-15T19:09:17.676Z,10.24
2023-11-15T19:11:45.361Z,10.22
2023-11-15T19:14:12.954Z,10.18
2023-11-15T19:16:39.568Z,10.16
2023-11-15T19:19:07.356Z,10.22
2023-11-15T19:21:34.077Z,10.25
2023-11-15T19:24:04.627Z,10.29
2023-11-15T19:26:31.211Z,10.26
2023-11-15T19:28:58.832Z,10.27
2023-11-15T19:31:25.481Z,10.24
2023-11-15T19:33:52.112Z,10.23
2023-11-15T19:36:19.803Z,10.16
2023-11-15T19:38:46.525Z,10.18
2023-11-15T19:41:23.372Z,10.15
2023-11-15T19:43:50.100Z,10.07
2023-11-15T19:46:20.577Z,10.14
2023-11-15T19:48:47.738Z,10.16
2023-11-15T19:51:15.016Z,10.17
2023-11-15T19:53:42.668Z,10.18
2023-11-15T19:56:10.323Z,10.19
2023-11-15T19:58:36.889Z,10.21
2023-11-15T20:01:03.787Z,10.20
2023-11-15T20:03:31.557Z,10.25
2023-11-15T20:05:58.202Z,10.23
2023-11-15T20:08:25.806Z,10.21
2023-11-15T20:10:53.476Z,10.23
2023-11-15T20:13:21.144Z,10.24
2023-11-15T20:15:47.672Z,10.03
2023-11-15T20:18:15.381Z,10.05
2023-11-15T20:20:41.948Z,10.10
2023-11-15T20:23:08.520Z,10.14
2023-11-15T20:25:36.126Z,10.15
2023-11-15T20:28:02.680Z,10.11
2023-11-15T20:30:30.436Z,10.12
2023-11-15T20:32:57.138Z,10.09
2023-11-15T20:35:24.888Z,10.10
2023-11-15T20:37:51.505Z,10.13
2023-11-15T20:40:18.080Z,10.11
2023-11-15T20:42:45.900Z,10.14
2023-11-15T20:45:12.696Z,10.14
2023-11-15T20:47:40.520Z,10.13
2023-11-15T20:50:07.674Z,10.14
2023-11-15T20:52:34.921Z,10.06
2023-11-15T20:55:02.883Z,10.14
2023-11-15T20:57:29.459Z,10.19
2023-11-15T21:00:00.020Z,10.20
2023-11-15T21:02:26.975Z,10.24
2023-11-15T21:04:54.786Z,10.25
2023-11-15T21:07:21.501Z,10.26
2023-11-15T21:09:49.133Z,10.22
2023-11-15T21:12:15.731Z,10.20
2023-11-15T21:14:43.376Z,10.18
2023-11-15T21:17:09.950Z,10.18
2023-11-15T21:19:40.635Z,10.21
2023-11-15T21:22:07.271Z,10.18
2023-11-15T21:24:34.030Z,10.12
2023-11-15T21:27:01.747Z,10.10
2023-11-15T21:29:28.360Z,10.11
2023-11-15T21:31:56.076Z,10.13
2023-11-15T21:34:22.667Z,10.13
2023-11-15T21:36:50.267Z,10.14
2023-11-15T21:39:16.839Z,10.10
2023-11-15T21:41:43.439Z,10.10
2023-11-15T21:44:11.111Z,10.09
2023-11-15T21:46:37.688Z,10.04
2023-11-15T21:49:05.279Z,10.08
2023-11-15T21:51:33.007Z,10.07
2023-11-15T21:54:01.707Z,10.06
2023-11-15T21:56:28.324Z,10.07
2023-11-15T21:58:54.906Z,10.06
2023-11-15T22:01:23.693Z,10.02
2023-11-15T22:03:50.422Z,10.04
2023-11-15T22:06:17.167Z,10.01
2023-11-15T22:08:46.246Z,10.06
2023-11-15T22:11:12.626Z,10.07
2023-11-15T22:13:40.247Z,10.06
2023-11-15T22:16:07.943Z,10.09
2023-11-15T22:18:38.380Z,10.03
2023-11-15T22:21:07.277Z,10.13
2023-11-15T22:23:33.931Z,10.09
2023-11-15T22:26:01.797Z,10.02
2023-11-15T22:28:28.376Z,10.05
2023-11-15T22:30:55.007Z,10.06
2023-11-15T22:33:22.663Z,9.89
2023-11-15T22:35:49.801Z,10.11
2023-11-15T22:38:17.491Z,10.01
2023-11-15T22:40:44.095Z,10.09
2023-11-15T22:43:11.361Z,10.08
2023-11-15T22:45:39.224Z,10.11
2023-11-15T22:48:06.449Z,10.11
2023-11-15T22:50:35.213Z,10.15
2023-11-15T22:53:01.785Z,10.12
2023-11-15T22:55:29.394Z,10.13
2023-11-15T22:57:55.958Z,10.13
2023-11-15T23:00:22.609Z,10.14
2023-11-15T23:02:51.403Z,10.08
2023-11-15T23:05:18.113Z,10.04
2023-11-15T23:07:45.814Z,9.99
2023-11-15T23:10:12.393Z,9.95
2023-11-15T23:12:40.107Z,9.93
2023-11-15T23:15:07.052Z,9.89
2023-11-15T23:17:33.648Z,9.91
2023-11-15T23:20:01.277Z,9.89
2023-11-15T23:22:28.933Z,9.86
2023-11-15T23:24:56.708Z,9.85
2023-11-15T23:27:23.333Z,9.83
2023-11-15T23:29:50.974Z,9.83
2023-11-15T23:32:17.561Z,9.79
2023-11-15T23:34:44.150Z,9.73
2023-11-15T23:37:11.785Z,9.69
2023-11-15T23:39:38.430Z,9.67
2023-11-15T23:42:06.408Z,9.67
2023-11-15T23:44:33.024Z,9.65
2023-11-15T23:47:00.709Z,9.56
2023-11-15T23:49:28.376Z,9.57
2023-11-15T23:51:54.964Z,9.54
2023-11-15T23:54:22.747Z,9.56
2023-11-15T23:56:49.326Z,9.48
2023-11-15T23:59:16.972Z,9.52
